East Liberty, Pennsylvania
Current Conditions -  °F | °C
As of 9:53 PM on Saturday 22 Nov 2014 (Local Time) from KAGC Reporting Station
Overcast Overcast  
Wind Chill:   Ceiling: 6500
Heat Index:   Visibility: 10mi
Dew Point: -4°   Wind: 12mph
Humidity: 39%   Direction: 200°SSW
Pressure: 30.1"   Gusts: NA
Location:  40.4715°N, 79.9138°W
Report Text: KAGC 230253Z 20010KT 10SM BKN065 OVC095 09/M04 A3010 RMK AO2 SLP206 T00941039 55009
Loading
Personal Weather Stations






























Interactive Weather Map New forecast layout! Learn more

10-Day Weather Forecast

Advertisements
Track Severe Weather on mobile